Eviapetrol II — SY6858 — position and weather

sailwx.info

Track history (hours):
 
Tides and Currents Weather Stations Pressure Air Temp Water Temp Dewpoint Dewpoint Depression Visibility Wind Speed Wind Dir Waves Ship Positions

Eviapetrol II

Last reported at 2017-May-23 01:26 UTC. Time now 2017-May-23 17:05 UTC.
Position N 37°28' E 023°34'.

Length 78 m; draft 4.2 m.

Type: Tanker. MMSI: 240493000.

Date/timePositionNaut miles runAvg speedWind from/ knotsBaromVisibWave heightAir tempDewpointWater temp
2017-May-23 01:26N 37°28' E 023°34'510.6
2017-May-23 01:00N 37°32' E 023°32'510.9
2017-May-23 00:31N 37°36' E 023°28'510.4
2017-May-23 00:01N 37°39' E 023°23'5 8.9
2017-May-22 23:30N 37°42' E 023°18'510.8
2017-May-22 23:01N 37°47' E 023°18'510.6
2017-May-22 22:30N 37°52' E 023°21'510.6
2017-May-22 22:00N 37°57' E 023°24'4 7.5
2017-May-22 21:31N 37°60' E 023°26'510.1
2017-May-22 21:00N 38°01' E 023°33'2 3.6
2017-May-22 20:20N 38°02' E 023°36'0 0.0
2017-May-22 19:56N 38°02' E 023°36'0 0.0
2017-May-22 19:20N 38°02' E 023°36'0 0.0
2017-May-22 15:29N 38°02' E 023°36'0 0.0
2017-May-22 14:59N 38°02' E 023°36'0 0.0
2017-May-22 14:23N 38°02' E 023°36'0 0.0
2017-May-22 09:14N 38°02' E 023°36'0 0.8
2017-May-22 08:47N 38°02' E 023°35'0 0.1
2017-May-22 04:25N 38°02' E 023°35'3 0.6
2017-May-22 00:02N 38°02' E 023°32'0 0.3
2017-May-22 00:00N 38°02' E 023°32'0 0.0
2017-May-21 23:30N 38°02' E 023°32'0 0.0
2017-May-21 23:00N 38°02' E 023°32'0 0.0
2017-May-21 22:30N 38°02' E 023°32'0 0.0
2017-May-21 22:00N 38°02' E 023°32'0 0.0
2017-May-21 21:30N 38°02' E 023°32'0 0.0
2017-May-21 21:00N 38°02' E 023°32'0 0.0
2017-May-21 20:30N 38°02' E 023°32'0 0.0
2017-May-21 20:00N 38°02' E 023°32'0 0.0
2017-May-21 19:30N 38°02' E 023°32'0 0.0
2017-May-21 19:00N 38°02' E 023°32'0 0.0
2017-May-21 18:30N 38°02' E 023°32'0 0.0
2017-May-21 18:00N 38°02' E 023°32'0 0.0
2017-May-21 17:30N 38°02' E 023°32'0 0.3
2017-May-21 17:00N 38°02' E 023°32'510.1
2017-May-21 16:30N 37°59' E 023°26'4 7.7
2017-May-21 16:01N 37°57' E 023°22'611.0
2017-May-21 15:30N 37°56' E 023°15'611.0
2017-May-21 15:00N 37°55' E 023°09'  
2017-May-19 10:11N 37°54' E 023°05'2 9.7
2017-May-19 10:00N 37°54' E 023°07'510.4
2017-May-19 09:30N 37°55' E 023°13'510.5
2017-May-19 09:00N 37°57' E 023°19'510.3
2017-May-19 08:30N 37°58' E 023°26'4 7.7
2017-May-19 08:00N 38°01' E 023°29'5 9.2
2017-May-19 07:31N 38°01' E 023°35'0 0.1
2017-May-19 01:09N 38°01' E 023°35'1 5.3
2017-May-19 01:01N 38°01' E 023°35'3 5.2
2017-May-19 00:25N 38°02' E 023°31'1 0.3
2017-May-18 22:07N 38°02' E 023°30'0 0.0
2017-May-18 16:55N 38°02' E 023°30'0 0.0
2017-May-18 16:16N 38°02' E 023°30'0 0.0
2017-May-18 15:58N 38°02' E 023°30'0 0.0
2017-May-18 15:19N 38°02' E 023°30'0 0.0
2017-May-18 14:13N 38°02' E 023°30'1 1.8
2017-May-18 13:29N 38°02' E 023°32'0 0.1
2017-May-18 12:59N 38°02' E 023°32'0 0.0
2017-May-18 12:29N 38°02' E 023°32'0 0.0
2017-May-18 11:59N 38°02' E 023°32'0 0.0
2017-May-18 11:29N 38°02' E 023°32'0 0.0
2017-May-18 10:59N 38°02' E 023°32'0 0.0
2017-May-18 10:29N 38°02' E 023°32'0 0.0
2017-May-18 10:00N 38°02' E 023°32'0 0.0
2017-May-18 09:30N 38°02' E 023°32'0 0.0
2017-May-18 09:00N 38°02' E 023°32'0 0.0
2017-May-18 08:30N 38°02' E 023°32'2 3.9
2017-May-18 08:00N 38°00' E 023°33'4 8.3
2017-May-18 07:31N 37°56' E 023°35'2 4.0
2017-May-18 07:00N 37°55' E 023°37'510.4
2017-May-18 06:30N 37°50' E 023°39'510.4
2017-May-18 06:00N 37°45' E 023°43'510.4
2017-May-18 05:31N 37°41' E 023°45'810.8
2017-May-18 04:44N 37°38' E 023°55'4210.5
2017-May-18 00:46N 37°41' E 024°48'311.1
2017-May-18 00:30N 37°41' E 024°51'510.5
2017-May-18 00:00N 37°41' E 024°58'1010.3
2017-May-17 23:01N 37°50' E 025°04'410.7
2017-May-17 22:39N 37°53' E 025°06'  
2017-May-14 15:05N 37°38' E 023°57'110.3
2017-May-14 15:00N 37°38' E 023°56'510.2
2017-May-14 14:31N 37°39' E 023°50'9 9.0
2017-May-14 13:30N 37°44' E 023°40'510.3
2017-May-14 13:01N 37°48' E 023°37'5 9.9
2017-May-14 12:31N 37°53' E 023°36'4 7.8
2017-May-14 12:01N 37°57' E 023°35'4 8.3
2017-May-14 11:31N 38°01' E 023°33'1 2.6
2017-May-14 11:00N 38°02' E 023°32'0 0.0
2017-May-14 10:30N 38°02' E 023°32'0 0.1
2017-May-14 10:00N 38°02' E 023°32'0 0.0
2017-May-14 09:30N 38°02' E 023°32'0 0.0
2017-May-14 09:00N 38°02' E 023°32'0 0.0
2017-May-14 08:30N 38°02' E 023°32'0 0.1
2017-May-14 07:59N 38°02' E 023°32'0 0.0
2017-May-14 07:30N 38°02' E 023°32'0 0.0
2017-May-14 07:00N 38°02' E 023°32'0 0.2
2017-May-14 06:23N 38°02' E 023°32'0 0.1
2017-May-14 05:57N 38°02' E 023°32'0 0.1
2017-May-14 05:27N 38°02' E 023°32'0 0.1
2017-May-14 04:53N 38°02' E 023°32'0 0.1
2017-May-14 04:23N 38°02' E 023°32'0 0.8
2017-May-14 04:00N 38°02' E 023°32'3 4.1
2017-May-14 03:23N 38°02' E 023°36'0 0.0
2017-May-14 03:00N 38°02' E 023°36'0 0.0
2017-May-14 02:30N 38°02' E 023°36'0 0.0
2017-May-14 02:00N 38°02' E 023°36'0 0.0
2017-May-14 01:31N 38°02' E 023°36'0 0.0
2017-May-14 01:01N 38°02' E 023°36'0 0.0
2017-May-14 00:31N 38°02' E 023°36'0 0.0
2017-May-14 00:01N 38°02' E 023°36'0 0.0
2017-May-13 23:30N 38°02' E 023°36'0 0.0
2017-May-13 23:01N 38°02' E 023°36'0 0.0
2017-May-13 22:31N 38°02' E 023°36'0 0.0
2017-May-13 22:00N 38°02' E 023°36'0 0.0
2017-May-13 21:30N 38°02' E 023°36'0 0.0
2017-May-13 21:01N 38°02' E 023°36'0 0.0
2017-May-13 20:31N 38°02' E 023°36'0 0.0
2017-May-13 20:00N 38°02' E 023°36'0 0.0
2017-May-13 19:31N 38°02' E 023°36'0 0.0
2017-May-13 19:00N 38°02' E 023°36'0 0.0
2017-May-13 18:31N 38°02' E 023°36'0 0.0
2017-May-13 18:00N 38°02' E 023°36'0 0.0
2017-May-13 17:30N 38°02' E 023°36'0 0.0
2017-May-13 17:00N 38°02' E 023°36'0 0.0
2017-May-13 16:30N 38°02' E 023°36'0 0.0
2017-May-13 16:00N 38°02' E 023°36'0 0.0
2017-May-13 15:30N 38°02' E 023°36'0 0.5
2017-May-13 14:49N 38°01' E 023°35'2 6.8
2017-May-13 14:30N 38°00' E 023°33'7 6.9
2017-May-13 13:30N 37°54' E 023°37'510.7
2017-May-13 13:01N 37°49' E 023°40'510.5
2017-May-13 12:31N 37°45' E 023°43'510.4
2017-May-13 12:01N 37°40' E 023°46'510.5
2017-May-13 11:31N 37°36' E 023°51'510.4
2017-May-13 11:00N 37°33' E 023°56'510.3
2017-May-13 10:30N 37°29' E 023°60'510.2
2017-May-13 10:00N 37°25' E 024°04'1110.4
2017-May-13 08:56N 37°16' E 024°13'510.6
2017-May-13 08:26N 37°12' E 024°18'  
Track history (hours):
 
Tides and Currents Weather Stations Pressure Air Temp Water Temp Dewpoint Dewpoint Depression Visibility Wind Speed Wind Dir Waves Ship Positions

Eviapetrol II

Last reported at 2017-May-23 01:26 UTC. Time now 2017-May-23 17:05 UTC.
Position N 37°28' E 023°34'.

Length 78 m; draft 4.2 m.

Type: Tanker. MMSI: 240493000.

Date/timePositionNaut miles runAvg speedWind from/ knotsBaromVisibWave heightAir tempDewpointWater temp
2017-May-23 01:26N 37°28' E 023°34'510.6
2017-May-23 01:00N 37°32' E 023°32'510.9
2017-May-23 00:31N 37°36' E 023°28'510.4
2017-May-23 00:01N 37°39' E 023°23'5 8.9
2017-May-22 23:30N 37°42' E 023°18'510.8
2017-May-22 23:01N 37°47' E 023°18'510.6
2017-May-22 22:30N 37°52' E 023°21'510.6
2017-May-22 22:00N 37°57' E 023°24'4 7.5
2017-May-22 21:31N 37°60' E 023°26'510.1
2017-May-22 21:00N 38°01' E 023°33'2 3.6
2017-May-22 20:20N 38°02' E 023°36'0 0.0
2017-May-22 19:56N 38°02' E 023°36'0 0.0
2017-May-22 19:20N 38°02' E 023°36'0 0.0
2017-May-22 15:29N 38°02' E 023°36'0 0.0
2017-May-22 14:59N 38°02' E 023°36'0 0.0
2017-May-22 14:23N 38°02' E 023°36'0 0.0
2017-May-22 09:14N 38°02' E 023°36'0 0.8
2017-May-22 08:47N 38°02' E 023°35'0 0.1
2017-May-22 04:25N 38°02' E 023°35'3 0.6
2017-May-22 00:02N 38°02' E 023°32'0 0.3
2017-May-22 00:00N 38°02' E 023°32'0 0.0
2017-May-21 23:30N 38°02' E 023°32'0 0.0
2017-May-21 23:00N 38°02' E 023°32'0 0.0
2017-May-21 22:30N 38°02' E 023°32'0 0.0
2017-May-21 22:00N 38°02' E 023°32'0 0.0
2017-May-21 21:30N 38°02' E 023°32'0 0.0
2017-May-21 21:00N 38°02' E 023°32'0 0.0
2017-May-21 20:30N 38°02' E 023°32'0 0.0
2017-May-21 20:00N 38°02' E 023°32'0 0.0
2017-May-21 19:30N 38°02' E 023°32'0 0.0
2017-May-21 19:00N 38°02' E 023°32'0 0.0
2017-May-21 18:30N 38°02' E 023°32'0 0.0
2017-May-21 18:00N 38°02' E 023°32'0 0.0
2017-May-21 17:30N 38°02' E 023°32'0 0.3
2017-May-21 17:00N 38°02' E 023°32'510.1
2017-May-21 16:30N 37°59' E 023°26'4 7.7
2017-May-21 16:01N 37°57' E 023°22'611.0
2017-May-21 15:30N 37°56' E 023°15'611.0
2017-May-21 15:00N 37°55' E 023°09'  
2017-May-19 10:11N 37°54' E 023°05'2 9.7
2017-May-19 10:00N 37°54' E 023°07'510.4
2017-May-19 09:30N 37°55' E 023°13'510.5
2017-May-19 09:00N 37°57' E 023°19'510.3
2017-May-19 08:30N 37°58' E 023°26'4 7.7
2017-May-19 08:00N 38°01' E 023°29'5 9.2
2017-May-19 07:31N 38°01' E 023°35'0 0.1
2017-May-19 01:09N 38°01' E 023°35'1 5.3
2017-May-19 01:01N 38°01' E 023°35'3 5.2
2017-May-19 00:25N 38°02' E 023°31'1 0.3
2017-May-18 22:07N 38°02' E 023°30'0 0.0
2017-May-18 16:55N 38°02' E 023°30'0 0.0
2017-May-18 16:16N 38°02' E 023°30'0 0.0
2017-May-18 15:58N 38°02' E 023°30'0 0.0
2017-May-18 15:19N 38°02' E 023°30'0 0.0
2017-May-18 14:13N 38°02' E 023°30'1 1.8
2017-May-18 13:29N 38°02' E 023°32'0 0.1
2017-May-18 12:59N 38°02' E 023°32'0 0.0
2017-May-18 12:29N 38°02' E 023°32'0 0.0
2017-May-18 11:59N 38°02' E 023°32'0 0.0
2017-May-18 11:29N 38°02' E 023°32'0 0.0
2017-May-18 10:59N 38°02' E 023°32'0 0.0
2017-May-18 10:29N 38°02' E 023°32'0 0.0
2017-May-18 10:00N 38°02' E 023°32'0 0.0
2017-May-18 09:30N 38°02' E 023°32'0 0.0
2017-May-18 09:00N 38°02' E 023°32'0 0.0
2017-May-18 08:30N 38°02' E 023°32'2 3.9
2017-May-18 08:00N 38°00' E 023°33'4 8.3
2017-May-18 07:31N 37°56' E 023°35'2 4.0
2017-May-18 07:00N 37°55' E 023°37'510.4
2017-May-18 06:30N 37°50' E 023°39'510.4
2017-May-18 06:00N 37°45' E 023°43'510.4
2017-May-18 05:31N 37°41' E 023°45'810.8
2017-May-18 04:44N 37°38' E 023°55'4210.5
2017-May-18 00:46N 37°41' E 024°48'311.1
2017-May-18 00:30N 37°41' E 024°51'510.5
2017-May-18 00:00N 37°41' E 024°58'1010.3
2017-May-17 23:01N 37°50' E 025°04'410.7
2017-May-17 22:39N 37°53' E 025°06'  
2017-May-14 15:05N 37°38' E 023°57'110.3
2017-May-14 15:00N 37°38' E 023°56'510.2
2017-May-14 14:31N 37°39' E 023°50'9 9.0
2017-May-14 13:30N 37°44' E 023°40'510.3
2017-May-14 13:01N 37°48' E 023°37'5 9.9
2017-May-14 12:31N 37°53' E 023°36'4 7.8
2017-May-14 12:01N 37°57' E 023°35'4 8.3
2017-May-14 11:31N 38°01' E 023°33'1 2.6
2017-May-14 11:00N 38°02' E 023°32'0 0.0
2017-May-14 10:30N 38°02' E 023°32'0 0.1
2017-May-14 10:00N 38°02' E 023°32'0 0.0
2017-May-14 09:30N 38°02' E 023°32'0 0.0
2017-May-14 09:00N 38°02' E 023°32'0 0.0
2017-May-14 08:30N 38°02' E 023°32'0 0.1
2017-May-14 07:59N 38°02' E 023°32'0 0.0
2017-May-14 07:30N 38°02' E 023°32'0 0.0
2017-May-14 07:00N 38°02' E 023°32'0 0.2
2017-May-14 06:23N 38°02' E 023°32'0 0.1
2017-May-14 05:57N 38°02' E 023°32'0 0.1
2017-May-14 05:27N 38°02' E 023°32'0 0.1
2017-May-14 04:53N 38°02' E 023°32'0 0.1
2017-May-14 04:23N 38°02' E 023°32'0 0.8
2017-May-14 04:00N 38°02' E 023°32'3 4.1
2017-May-14 03:23N 38°02' E 023°36'0 0.0
2017-May-14 03:00N 38°02' E 023°36'0 0.0
2017-May-14 02:30N 38°02' E 023°36'0 0.0
2017-May-14 02:00N 38°02' E 023°36'0 0.0
2017-May-14 01:31N 38°02' E 023°36'0 0.0
2017-May-14 01:01N 38°02' E 023°36'0 0.0
2017-May-14 00:31N 38°02' E 023°36'0 0.0
2017-May-14 00:01N 38°02' E 023°36'0 0.0
2017-May-13 23:30N 38°02' E 023°36'0 0.0
2017-May-13 23:01N 38°02' E 023°36'0 0.0
2017-May-13 22:31N 38°02' E 023°36'0 0.0
2017-May-13 22:00N 38°02' E 023°36'0 0.0
2017-May-13 21:30N 38°02' E 023°36'0 0.0
2017-May-13 21:01N 38°02' E 023°36'0 0.0
2017-May-13 20:31N 38°02' E 023°36'0 0.0
2017-May-13 20:00N 38°02' E 023°36'0 0.0
2017-May-13 19:31N 38°02' E 023°36'0 0.0
2017-May-13 19:00N 38°02' E 023°36'0 0.0
2017-May-13 18:31N 38°02' E 023°36'0 0.0
2017-May-13 18:00N 38°02' E 023°36'0 0.0
2017-May-13 17:30N 38°02' E 023°36'0 0.0
2017-May-13 17:00N 38°02' E 023°36'0 0.0
2017-May-13 16:30N 38°02' E 023°36'0 0.0
2017-May-13 16:00N 38°02' E 023°36'0 0.0
2017-May-13 15:30N 38°02' E 023°36'0 0.5
2017-May-13 14:49N 38°01' E 023°35'2 6.8
2017-May-13 14:30N 38°00' E 023°33'7 6.9
2017-May-13 13:30N 37°54' E 023°37'510.7
2017-May-13 13:01N 37°49' E 023°40'510.5
2017-May-13 12:31N 37°45' E 023°43'510.4
2017-May-13 12:01N 37°40' E 023°46'510.5
2017-May-13 11:31N 37°36' E 023°51'510.4
2017-May-13 11:00N 37°33' E 023°56'510.3
2017-May-13 10:30N 37°29' E 023°60'510.2
2017-May-13 10:00N 37°25' E 024°04'1110.4
2017-May-13 08:56N 37°16' E 024°13'510.6
2017-May-13 08:26N 37°12' E 024°18'  

Dump ship's entire track history